Time;durP1;ratioP1;P1;durP2;ratioP2;P2;SDS_P1;SDS_P2;PMS_P1;PMS_P2;Temp;Humidity;BMP_temperature;BMP_pressure;BME280_temperature;BME280_humidity;BME280_pressure;Samples;Min_cycle;Max_cycle;Signal;HPM_P1;HPM_P2
2022/11/22 00:00:59;;;;;;;11.35;5.88;;;6.60;99.90;;;;;;5071073;28;20020;-73
2022/11/22 00:03:25;;;;;;;13.48;5.50;;;6.50;99.90;;;;;;5071617;28;20107;-73
2022/11/22 00:05:51;;;;;;;9.98;5.93;;;6.50;99.90;;;;;;5070845;28;20059;-74
2022/11/22 00:08:16;;;;;;;8.38;5.53;;;6.50;99.90;;;;;;5072063;28;20064;-73
2022/11/22 00:10:42;;;;;;;11.35;6.18;;;6.50;99.90;;;;;;5074042;28;20032;-74
2022/11/22 00:13:08;;;;;;;15.88;5.95;;;6.60;99.90;;;;;;5074210;28;20028;-75
2022/11/22 00:15:34;;;;;;;11.00;5.90;;;6.60;99.90;;;;;;5075202;28;20020;-74
2022/11/22 00:18:00;;;;;;;17.00;6.05;;;6.60;99.90;;;;;;5074765;28;20585;-74
2022/11/22 00:20:26;;;;;;;12.80;6.13;;;6.60;99.90;;;;;;5073997;28;20475;-73
2022/11/22 00:22:51;;;;;;;9.35;5.78;;;6.50;99.90;;;;;;5073388;28;20082;-73
2022/11/22 00:25:17;;;;;;;13.75;5.90;;;6.40;99.90;;;;;;5074903;28;20028;-75
2022/11/22 00:27:43;;;;;;;13.82;6.65;;;6.40;99.90;;;;;;5074222;28;20036;-73
2022/11/22 00:30:09;;;;;;;11.27;5.65;;;6.40;99.90;;;;;;5073939;28;20035;-74
2022/11/22 00:32:35;;;;;;;10.80;6.07;;;6.40;99.90;;;;;;5075055;28;20021;-73
2022/11/22 00:35:00;;;;;;;14.85;6.70;;;6.30;99.90;;;;;;5074009;28;20046;-74
2022/11/22 00:37:26;;;;;;;22.52;5.90;;;6.30;99.90;;;;;;5074893;28;20076;-74
2022/11/22 00:39:51;;;;;;;7.93;5.80;;;6.30;99.90;;;;;;5073883;28;20388;-73
2022/11/22 00:42:17;;;;;;;14.32;6.78;;;6.20;99.90;;;;;;5074119;28;20421;-73
2022/11/22 00:44:42;;;;;;;10.05;5.65;;;6.20;99.90;;;;;;5075330;28;20025;-74
2022/11/22 00:47:08;;;;;;;11.65;5.97;;;6.20;99.90;;;;;;5074291;28;20070;-73
2022/11/22 00:49:33;;;;;;;12.43;5.72;;;6.20;99.90;;;;;;5074338;28;20021;-73
2022/11/22 00:51:59;;;;;;;12.63;6.25;;;6.20;99.90;;;;;;5074530;28;20020;-73
2022/11/22 00:54:24;;;;;;;12.75;5.72;;;6.30;99.90;;;;;;5060150;28;20029;-74
2022/11/22 00:56:50;;;;;;;10.38;5.68;;;6.30;99.90;;;;;;5073614;28;20479;-73
2022/11/22 00:59:16;;;;;;;16.52;6.20;;;6.30;99.90;;;;;;5074857;28;20108;-75
2022/11/22 01:01:41;;;;;;;11.23;5.15;;;6.30;99.90;;;;;;5074588;28;20484;-73
2022/11/22 01:04:07;;;;;;;13.35;5.50;;;6.40;99.90;;;;;;5074259;28;20380;-73
2022/11/22 01:06:32;;;;;;;12.65;5.78;;;6.50;99.90;;;;;;5075219;28;20056;-72
2022/11/22 01:08:58;;;;;;;7.53;4.75;;;6.50;99.90;;;;;;5074031;28;20040;-73
2022/11/22 01:11:23;;;;;;;14.68;5.03;;;6.50;99.90;;;;;;5074076;28;20538;-74
2022/11/22 01:13:49;;;;;;;11.45;4.68;;;6.50;99.90;;;;;;5074262;28;20017;-73
2022/11/22 01:16:15;;;;;;;10.20;3.95;;;6.50;99.90;;;;;;5073325;28;20025;-74
2022/11/22 01:18:40;;;;;;;8.52;3.75;;;6.50;99.90;;;;;;5074005;28;20024;-74
2022/11/22 01:21:06;;;;;;;10.75;3.70;;;6.50;99.90;;;;;;5073775;28;20025;-73
2022/11/22 01:23:33;;;;;;;9.15;3.55;;;6.40;99.90;;;;;;5073448;28;20024;-74
2022/11/22 01:25:58;;;;;;;9.85;3.35;;;6.30;99.90;;;;;;5074032;28;20123;-74
2022/11/22 01:28:24;;;;;;;24.10;5.35;;;6.20;99.90;;;;;;5073431;28;20159;-74
2022/11/22 01:30:51;;;;;;;12.88;3.05;;;6.20;99.90;;;;;;5072870;28;20366;-73
2022/11/22 01:33:17;;;;;;;13.73;4.50;;;6.20;99.90;;;;;;5077262;28;20074;-74
2022/11/22 01:35:43;;;;;;;11.32;3.03;;;6.10;99.90;;;;;;5078469;28;20040;-72
2022/11/22 01:38:09;;;;;;;15.70;3.28;;;6.10;99.90;;;;;;5073672;28;20085;-72
2022/11/22 01:40:35;;;;;;;14.77;3.70;;;6.00;99.90;;;;;;5074221;28;20021;-74
2022/11/22 01:43:01;;;;;;;9.02;3.97;;;6.00;99.90;;;;;;5073292;28;20070;-73
2022/11/22 01:45:29;;;;;;;14.32;3.17;;;6.00;99.90;;;;;;5072644;28;20094;-73
2022/11/22 01:48:06;;;;;;;11.32;3.85;;;6.00;99.90;;;;;;5073229;28;20032;-74
2022/11/22 01:50:35;;;;;;;7.15;3.00;;;5.90;99.90;;;;;;5073591;28;20085;-73
2022/11/22 01:53:05;;;;;;;20.48;3.50;;;5.90;99.90;;;;;;5069500;28;20028;-75
2022/11/22 01:55:32;;;;;;;11.88;3.13;;;5.90;99.90;;;;;;5063091;28;20060;-73
2022/11/22 01:57:59;;;;;;;12.80;2.97;;;5.80;99.90;;;;;;5072827;28;20139;-73
2022/11/22 02:00:25;;;;;;;17.63;3.78;;;5.90;99.90;;;;;;5072615;28;20016;-74
2022/11/22 02:02:55;;;;;;;14.60;3.03;;;5.80;99.90;;;;;;5073188;28;20146;-72
2022/11/22 02:05:22;;;;;;;17.23;3.25;;;5.80;99.90;;;;;;5072742;28;20070;-73
2022/11/22 02:08:00;;;;;;;11.55;3.30;;;5.80;99.90;;;;;;5073081;28;20098;-73
2022/11/22 02:10:28;;;;;;;11.40;3.05;;;5.70;99.90;;;;;;5072996;28;20067;-73
2022/11/22 02:12:57;;;;;;;13.63;2.90;;;5.80;99.90;;;;;;5072105;28;20031;-73
2022/11/22 02:15:23;;;;;;;19.73;3.55;;;5.70;99.90;;;;;;5072592;28;20016;-74
2022/11/22 02:17:49;;;;;;;17.10;3.35;;;5.70;99.90;;;;;;5072960;28;20035;-73
2022/11/22 02:20:16;;;;;;;10.80;3.40;;;5.70;99.90;;;;;;5072212;28;20103;-74
2022/11/22 02:23:20;;;;;;;10.35;3.33;;;5.60;99.90;;;;;;5073399;28;20032;-74
2022/11/22 02:25:57;;;;;;;10.18;3.08;;;5.60;99.90;;;;;;5072465;28;20025;-74
2022/11/22 02:28:24;;;;;;;15.07;3.42;;;5.50;99.90;;;;;;5072137;28;20094;-73
2022/11/22 02:30:50;;;;;;;16.73;3.85;;;5.60;99.90;;;;;;5056071;28;20029;-73
2022/11/22 02:33:15;;;;;;;15.85;3.20;;;5.50;99.90;;;;;;5052234;28;20369;-73
2022/11/22 02:35:41;;;;;;;18.63;3.20;;;5.50;99.90;;;;;;5056125;28;20029;-74
2022/11/22 02:38:11;;;;;;;10.85;2.90;;;5.50;99.90;;;;;;5072427;28;20021;-74
2022/11/22 02:41:07;;;;;;;13.18;4.07;;;5.50;99.90;;;;;;5072360;28;20028;-73
2022/11/22 02:43:45;;;;;;;11.75;2.95;;;5.50;99.90;;;;;;5071382;28;20033;-74
2022/11/22 02:46:19;;;;;;;13.30;2.80;;;5.50;99.90;;;;;;5072488;28;20109;-74
2022/11/22 02:48:45;;;;;;;22.52;2.80;;;5.50;99.90;;;;;;5057532;28;20495;-73
2022/11/22 02:51:15;;;;;;;21.30;3.90;;;5.50;99.90;;;;;;5072268;28;20032;-73
2022/11/22 02:53:45;;;;;;;20.58;3.45;;;5.50;99.90;;;;;;5072274;28;20028;-73
2022/11/22 02:56:11;;;;;;;20.20;3.45;;;5.50;99.90;;;;;;5071218;28;20020;-73
2022/11/22 02:58:36;;;;;;;19.73;3.63;;;5.50;99.90;;;;;;5071845;28;20025;-73
2022/11/22 03:01:02;;;;;;;13.40;2.65;;;5.50;99.90;;;;;;5071821;28;20020;-74
2022/11/22 03:03:28;;;;;;;11.82;2.45;;;5.60;99.90;;;;;;5071527;28;20031;-73
2022/11/22 03:05:54;;;;;;;9.00;2.72;;;5.60;99.90;;;;;;5057554;28;20028;-73
2022/11/22 03:08:19;;;;;;;9.45;3.03;;;5.60;99.90;;;;;;5071998;28;20036;-72
2022/11/22 03:10:45;;;;;;;19.10;2.85;;;5.60;99.90;;;;;;5073954;28;20024;-74
2022/11/22 03:13:13;;;;;;;14.00;2.45;;;5.60;99.90;;;;;;5084865;28;20013;-75
2022/11/22 03:15:39;;;;;;;24.90;2.78;;;5.50;99.90;;;;;;5071374;28;20163;-74
2022/11/22 03:18:07;;;;;;;12.35;3.17;;;5.50;99.90;;;;;;5071917;28;20100;-74
2022/11/22 03:20:33;;;;;;;13.52;2.75;;;5.40;99.90;;;;;;5072081;28;20024;-73
2022/11/22 03:23:01;;;;;;;12.10;2.45;;;5.40;99.90;;;;;;5071226;28;20108;-74
2022/11/22 03:25:27;;;;;;;15.38;3.03;;;5.30;99.90;;;;;;5072672;28;20452;-73
2022/11/22 03:27:52;;;;;;;23.20;3.22;;;5.30;99.90;;;;;;5072009;28;20032;-73
2022/11/22 03:30:18;;;;;;;11.30;2.67;;;5.30;99.90;;;;;;5071682;28;20025;-73
2022/11/22 03:32:44;;;;;;;18.85;3.53;;;5.30;99.90;;;;;;5071924;28;20025;-73
2022/11/22 03:35:10;;;;;;;20.75;3.67;;;5.20;99.90;;;;;;5071876;28;20028;-73
2022/11/22 03:37:35;;;;;;;20.40;2.92;;;5.20;99.90;;;;;;5071160;28;20087;-72
2022/11/22 03:40:01;;;;;;;16.65;2.40;;;5.20;99.90;;;;;;5057316;28;20040;-74
2022/11/22 03:42:27;;;;;;;17.42;3.33;;;5.10;99.90;;;;;;5071951;28;20027;-73
2022/11/22 03:44:52;;;;;;;11.10;2.50;;;5.10;99.90;;;;;;5071854;28;20087;-74
2022/11/22 03:47:18;;;;;;;19.52;3.25;;;5.10;99.90;;;;;;5076158;28;20032;-73
2022/11/22 03:49:43;;;;;;;16.10;2.55;;;5.10;99.90;;;;;;5075830;28;20066;-73
2022/11/22 03:52:09;;;;;;;16.42;2.38;;;5.00;99.90;;;;;;5074719;28;20869;-74
2022/11/22 03:54:34;;;;;;;11.93;2.40;;;5.00;99.90;;;;;;5075602;28;20490;-72
2022/11/22 03:57:00;;;;;;;13.43;2.80;;;4.90;99.90;;;;;;5075343;28;20373;-73
2022/11/22 03:59:25;;;;;;;12.77;2.05;;;4.90;99.90;;;;;;5074582;28;20240;-73
2022/11/22 04:01:51;;;;;;;24.55;3.90;;;4.90;99.90;;;;;;5075557;28;20024;-75
2022/11/22 04:04:17;;;;;;;15.13;2.38;;;4.90;99.90;;;;;;5075497;28;20381;-73
2022/11/22 04:06:42;;;;;;;17.45;2.72;;;4.80;99.90;;;;;;5075581;28;20028;-73
2022/11/22 04:09:08;;;;;;;23.60;2.95;;;4.80;99.90;;;;;;5075003;28;20392;-73
2022/11/22 04:11:36;;;;;;;13.60;2.20;;;4.80;99.90;;;;;;5075310;28;20020;-73
2022/11/22 04:16:46;;;;;;;18.08;2.47;;;4.70;99.90;;;;;;5075322;28;20035;-74
2022/11/22 04:19:11;;;;;;;22.17;3.13;;;4.80;99.90;;;;;;5074104;28;20295;-73
2022/11/22 04:21:37;;;;;;;21.90;2.63;;;4.80;99.90;;;;;;5075313;28;20491;-73
2022/11/22 04:26:53;;;;;;;14.73;2.77;;;4.70;99.90;;;;;;5074437;28;20020;-73
2022/11/22 04:29:19;;;;;;;10.50;2.92;;;4.70;99.90;;;;;;5075154;28;20321;-73
2022/11/22 04:34:31;;;;;;;20.67;2.88;;;4.80;99.90;;;;;;5074429;28;20035;-74
2022/11/22 04:36:56;;;;;;;8.77;2.03;;;4.80;99.90;;;;;;5074619;28;20392;-75
2022/11/22 04:39:25;;;;;;;13.57;2.20;;;4.80;99.90;;;;;;5062261;28;20025;-73
2022/11/22 04:44:39;;;;;;;14.20;2.90;;;4.70;99.90;;;;;;5072349;28;20509;-73
2022/11/22 04:44:40;;;;;;;8.90;2.28;;;4.60;99.90;;;;;;5074718;28;20033;-73
2022/11/22 04:47:10;;;;;;;9.77;2.53;;;4.60;99.90;;;;;;5074390;28;20384;-73
2022/11/22 04:49:36;;;;;;;18.90;2.65;;;4.60;99.90;;;;;;5075055;28;20029;-75
2022/11/22 04:54:47;;;;;;;9.52;2.83;;;4.70;99.90;;;;;;5074568;28;20145;-74
2022/11/22 04:57:12;;;;;;;8.25;1.92;;;4.70;99.90;;;;;;5073949;28;20041;-73
2022/11/22 04:59:38;;;;;;;7.70;2.28;;;4.70;99.90;;;;;;5074196;28;20029;-74
2022/11/22 05:02:03;;;;;;;11.13;2.85;;;4.70;99.90;;;;;;5073385;28;20016;-73
2022/11/22 05:04:29;;;;;;;11.30;2.40;;;4.60;99.90;;;;;;5074685;28;20025;-73
2022/11/22 05:06:55;;;;;;;12.18;2.17;;;4.60;99.90;;;;;;5073965;28;20449;-73
2022/11/22 05:09:22;;;;;;;16.05;2.88;;;4.60;99.90;;;;;;5073764;28;20381;-73
2022/11/22 05:11:48;;;;;;;12.73;2.60;;;4.60;99.90;;;;;;5074401;28;20087;-73
2022/11/22 05:14:13;;;;;;;9.65;2.00;;;4.60;99.90;;;;;;5073968;28;20054;-73
2022/11/22 05:16:39;;;;;;;6.75;1.70;;;4.60;99.90;;;;;;5073694;28;20325;-74
2022/11/22 05:19:04;;;;;;;18.35;2.58;;;4.70;99.90;;;;;;5073913;28;20017;-72
2022/11/22 05:21:32;;;;;;;14.45;2.00;;;4.80;99.90;;;;;;5074450;28;20089;-74
2022/11/22 05:23:57;;;;;;;10.50;2.80;;;4.80;99.90;;;;;;5072872;28;20404;-74
2022/11/22 05:26:29;;;;;;;8.48;2.13;;;4.90;99.90;;;;;;5074065;28;20060;-72
2022/11/22 05:28:57;;;;;;;13.15;2.28;;;4.90;99.90;;;;;;5073437;28;20488;-73
2022/11/22 05:31:23;;;;;;;9.63;2.33;;;5.10;99.90;;;;;;5073370;28;20024;-73
2022/11/22 05:33:51;;;;;;;16.90;2.38;;;5.10;99.90;;;;;;5073792;28;20032;-73
2022/11/22 05:36:17;;;;;;;8.90;1.77;;;5.20;99.90;;;;;;5072709;28;20116;-73
2022/11/22 05:38:43;;;;;;;13.85;2.30;;;5.10;99.90;;;;;;5066549;28;20068;-73
2022/11/22 05:41:10;;;;;;;14.93;2.95;;;5.20;99.90;;;;;;5066427;28;20405;-72
2022/11/22 05:43:36;;;;;;;11.40;2.10;;;5.30;99.90;;;;;;5072843;28;20508;-73
2022/11/22 05:46:11;;;;;;;8.18;2.15;;;5.30;99.90;;;;;;5073622;28;20090;-73
2022/11/22 05:48:39;;;;;;;9.40;2.28;;;5.40;99.90;;;;;;5073367;28;20401;-74
2022/11/22 05:51:06;;;;;;;14.95;3.53;;;5.40;99.90;;;;;;5072353;28;20028;-74
2022/11/22 05:53:32;;;;;;;10.07;2.72;;;5.40;99.90;;;;;;5073341;28;20020;-73
2022/11/22 05:56:03;;;;;;;11.55;2.65;;;5.30;99.90;;;;;;5073434;28;20472;-72
2022/11/22 05:58:28;;;;;;;13.75;2.90;;;5.30;99.90;;;;;;5067357;28;20032;-73
2022/11/22 06:00:54;;;;;;;12.73;2.63;;;5.20;99.90;;;;;;5075719;28;20047;-72
2022/11/22 06:03:19;;;;;;;7.45;2.25;;;5.10;99.90;;;;;;5057093;28;20021;-74
2022/11/22 06:05:51;;;;;;;6.78;2.42;;;5.10;99.90;;;;;;5055898;28;20047;-73
2022/11/22 06:08:17;;;;;;;14.60;3.20;;;5.10;99.90;;;;;;5061815;28;20532;-73
2022/11/22 06:10:42;;;;;;;8.15;2.83;;;5.00;99.90;;;;;;5059626;28;20155;-74
2022/11/22 06:13:08;;;;;;;6.85;2.13;;;4.90;99.90;;;;;;5060219;28;20087;-74
2022/11/22 06:15:33;;;;;;;16.73;2.88;;;4.90;99.90;;;;;;5060901;28;20029;-74
2022/11/22 06:18:01;;;;;;;14.38;2.75;;;4.90;99.90;;;;;;5060154;28;20024;-73
2022/11/22 06:20:27;;;;;;;8.27;2.58;;;4.80;99.90;;;;;;5069508;28;20020;-74
2022/11/22 06:22:52;;;;;;;15.45;2.67;;;4.80;99.90;;;;;;5065692;28;20100;-73
2022/11/22 06:25:18;;;;;;;8.52;2.33;;;4.90;99.90;;;;;;5071458;28;20099;-74
2022/11/22 06:27:44;;;;;;;14.02;2.90;;;5.00;99.90;;;;;;5076861;28;20033;-75
2022/11/22 06:30:10;;;;;;;8.45;2.05;;;5.10;99.90;;;;;;5067863;28;20512;-74
2022/11/22 06:32:35;;;;;;;7.22;2.10;;;5.10;99.90;;;;;;5071368;28;20024;-74
2022/11/22 06:35:02;;;;;;;7.93;2.22;;;5.10;99.90;;;;;;5078000;28;20012;-74
2022/11/22 06:37:28;;;;;;;11.95;2.90;;;5.10;99.90;;;;;;5071688;28;20040;-73
2022/11/22 06:39:53;;;;;;;4.43;1.65;;;5.20;99.90;;;;;;5065733;28;20112;-73
2022/11/22 06:42:19;;;;;;;11.05;2.30;;;5.20;99.90;;;;;;5068621;28;20059;-72
2022/11/22 06:44:44;;;;;;;10.38;2.30;;;5.30;99.90;;;;;;5071088;28;20040;-74
2022/11/22 06:47:10;;;;;;;9.38;2.17;;;5.20;99.90;;;;;;5070259;28;20021;-73
2022/11/22 06:49:36;;;;;;;12.98;2.30;;;5.10;99.90;;;;;;5071445;28;20028;-74
2022/11/22 06:52:01;;;;;;;10.82;2.63;;;5.00;99.90;;;;;;5070412;28;20016;-73
2022/11/22 06:54:27;;;;;;;9.80;2.45;;;5.00;99.90;;;;;;5064390;28;20067;-73
2022/11/22 06:56:52;;;;;;;6.38;2.63;;;5.00;99.90;;;;;;5054012;28;20064;-73
2022/11/22 06:59:18;;;;;;;9.23;2.33;;;5.00;99.90;;;;;;5057988;28;20063;-73
2022/11/22 07:01:43;;;;;;;8.30;2.25;;;5.10;99.90;;;;;;5055947;28;20393;-75
2022/11/22 07:04:09;;;;;;;9.30;2.45;;;5.10;99.90;;;;;;5057753;28;20056;-73
2022/11/22 07:06:37;;;;;;;10.20;2.40;;;5.10;99.90;;;;;;5053824;28;20029;-73
2022/11/22 07:09:06;;;;;;;8.35;2.22;;;5.20;99.90;;;;;;5063769;28;20115;-73
2022/11/22 07:11:31;;;;;;;14.15;2.80;;;5.20;99.90;;;;;;5070458;28;20027;-73
2022/11/22 07:13:59;;;;;;;10.85;2.33;;;5.30;99.90;;;;;;5071524;28;20380;-72
2022/11/22 07:16:24;;;;;;;9.13;2.28;;;5.30;99.90;;;;;;5071018;28;20479;-75
2022/11/22 07:18:50;;;;;;;14.80;2.60;;;5.30;99.90;;;;;;5071002;28;20028;-74
2022/11/22 07:21:19;;;;;;;14.05;2.20;;;5.40;99.90;;;;;;5072033;28;20449;-73
2022/11/22 07:23:46;;;;;;;8.00;2.70;;;5.50;99.90;;;;;;5071324;28;20059;-74
2022/11/22 07:26:13;;;;;;;16.75;2.47;;;5.50;99.90;;;;;;5070498;28;20109;-75
2022/11/22 07:28:39;;;;;;;6.88;2.35;;;5.50;99.90;;;;;;5071386;28;20154;-74
2022/11/22 07:31:09;;;;;;;9.20;2.65;;;5.50;99.90;;;;;;5071079;28;20028;-73
2022/11/22 07:33:35;;;;;;;9.88;2.75;;;5.50;99.90;;;;;;5071518;28;20326;-73
2022/11/22 07:36:08;;;;;;;10.88;2.75;;;5.50;99.90;;;;;;5075655;28;20037;-73
2022/11/22 07:38:34;;;;;;;10.43;2.53;;;5.50;99.90;;;;;;5066253;28;20052;-73
2022/11/22 07:41:00;;;;;;;6.63;2.10;;;5.60;99.90;;;;;;5067366;28;20427;-73
2022/11/22 07:43:26;;;;;;;12.13;3.13;;;5.60;99.90;;;;;;5070634;28;20029;-73
2022/11/22 07:45:51;;;;;;;8.13;2.22;;;5.70;99.90;;;;;;5071005;28;20017;-69
2022/11/22 07:48:17;;;;;;;7.20;2.08;;;5.70;99.90;;;;;;5061482;28;20029;-74
2022/11/22 07:50:42;;;;;;;9.23;2.53;;;5.80;99.90;;;;;;5070211;28;20021;-75
2022/11/22 07:53:08;;;;;;;13.00;2.35;;;5.90;99.90;;;;;;5073344;28;20112;-74
2022/11/22 07:55:35;;;;;;;8.18;2.65;;;6.10;99.90;;;;;;5071735;28;20028;-75
2022/11/22 07:58:01;;;;;;;10.52;3.05;;;5.90;99.90;;;;;;5070932;28;20012;-74
2022/11/22 08:00:27;;;;;;;6.25;3.05;;;6.00;99.90;;;;;;5071422;28;20020;-74
2022/11/22 08:02:53;;;;;;;7.15;2.00;;;6.00;99.90;;;;;;5071472;28;20380;-73
2022/11/22 08:05:19;;;;;;;11.57;2.58;;;6.00;99.90;;;;;;5070673;28;20029;-73
2022/11/22 08:07:49;;;;;;;10.75;2.88;;;6.10;99.90;;;;;;5071749;28;20475;-73
2022/11/22 08:10:14;;;;;;;10.63;2.38;;;6.00;99.90;;;;;;5082733;28;20016;-73
2022/11/22 08:12:40;;;;;;;12.55;2.92;;;6.00;99.90;;;;;;5082546;28;20036;-74
2022/11/22 08:15:07;;;;;;;5.25;2.17;;;6.00;99.90;;;;;;5074992;28;20032;-75
2022/11/22 08:17:32;;;;;;;7.53;2.40;;;6.00;99.90;;;;;;5071099;28;20032;-74
2022/11/22 08:19:58;;;;;;;8.75;2.47;;;6.10;99.90;;;;;;5070404;28;20036;-74
2022/11/22 08:22:23;;;;;;;7.32;2.50;;;6.00;99.90;;;;;;5086578;28;20044;-72
2022/11/22 08:24:49;;;;;;;7.10;2.10;;;6.00;99.90;;;;;;5076463;28;20124;-72
2022/11/22 08:27:14;;;;;;;9.32;2.63;;;6.00;99.90;;;;;;5083778;28;20023;-73
2022/11/22 08:29:40;;;;;;;7.28;2.65;;;6.00;99.90;;;;;;5087257;28;20024;-71
2022/11/22 08:32:05;;;;;;;10.93;2.72;;;6.00;99.90;;;;;;5084935;28;20020;-72
2022/11/22 08:34:31;;;;;;;8.88;2.63;;;6.10;99.90;;;;;;5091078;28;20064;-72
2022/11/22 08:36:56;;;;;;;9.52;2.40;;;6.20;99.90;;;;;;5087641;28;20043;-73
2022/11/22 08:39:22;;;;;;;8.80;2.60;;;6.20;99.90;;;;;;5080804;28;20032;-73
2022/11/22 08:41:47;;;;;;;8.30;2.65;;;6.20;99.90;;;;;;5073479;28;20033;-74
2022/11/22 08:44:14;;;;;;;6.90;2.63;;;6.20;99.90;;;;;;5062552;28;20055;-71
2022/11/22 08:46:52;;;;;;;16.90;3.05;;;6.20;99.90;;;;;;5085148;28;20099;-71
2022/11/22 08:49:17;;;;;;;9.57;3.20;;;6.30;99.90;;;;;;5093768;28;20028;-74
2022/11/22 08:51:44;;;;;;;9.45;2.75;;;6.30;99.90;;;;;;5092958;28;20027;-70
2022/11/22 08:54:14;;;;;;;8.18;2.55;;;6.30;99.90;;;;;;5062220;28;20039;-73
2022/11/22 08:56:40;;;;;;;10.45;2.63;;;6.40;99.90;;;;;;5073410;28;20437;-73
2022/11/22 08:59:06;;;;;;;12.25;2.70;;;6.40;99.90;;;;;;5076624;28;20064;-74
2022/11/22 09:01:32;;;;;;;9.73;2.55;;;6.40;99.90;;;;;;5080958;28;20020;-74
2022/11/22 09:03:58;;;;;;;8.63;3.30;;;6.50;99.90;;;;;;5084504;28;20020;-74
2022/11/22 09:06:24;;;;;;;9.50;2.90;;;6.50;99.90;;;;;;5089705;28;20024;-74
2022/11/22 09:08:50;;;;;;;5.32;2.83;;;6.50;99.90;;;;;;5072251;28;20037;-75
2022/11/22 09:11:19;;;;;;;8.23;3.03;;;6.50;99.90;;;;;;5073500;28;20025;-75
2022/11/22 09:13:45;;;;;;;8.77;2.95;;;6.50;99.90;;;;;;5070928;28;20355;-74
2022/11/22 09:16:13;;;;;;;6.80;2.63;;;6.50;99.90;;;;;;5073163;28;20024;-74
2022/11/22 09:18:39;;;;;;;6.53;2.78;;;6.60;99.90;;;;;;5071522;28;20040;-74
2022/11/22 09:21:08;;;;;;;8.60;2.50;;;6.60;99.90;;;;;;5093539;28;20376;-75
2022/11/22 09:23:36;;;;;;;7.35;2.58;;;6.60;99.90;;;;;;5088888;28;20033;-74
2022/11/22 09:26:04;;;;;;;7.80;2.50;;;6.50;99.90;;;;;;5072672;28;20033;-76
2022/11/22 09:28:30;;;;;;;6.05;2.65;;;6.50;99.90;;;;;;5075219;28;20032;-75
2022/11/22 09:31:31;;;;;;;6.65;2.85;;;6.50;99.90;;;;;;5074619;28;20023;-74
2022/11/22 09:33:57;;;;;;;8.77;2.60;;;6.60;99.90;;;;;;5011281;28;20030;-75
2022/11/22 09:36:26;;;;;;;10.27;3.05;;;6.60;99.90;;;;;;5066153;28;20044;-75
2022/11/22 09:38:53;;;;;;;11.18;2.95;;;6.70;99.90;;;;;;5071562;28;20370;-76
2022/11/22 09:41:34;;;;;;;13.02;2.53;;;6.70;99.90;;;;;;5068776;28;20047;-77
2022/11/22 09:44:07;;;;;;;7.32;2.22;;;6.70;99.90;;;;;;5076809;28;20384;-75
2022/11/22 09:47:01;;;;;;;12.50;2.70;;;6.70;99.90;;;;;;5089006;28;20115;-75
2022/11/22 09:49:37;;;;;;;4.78;2.83;;;6.70;99.90;;;;;;5072271;28;20028;-75
2022/11/22 09:52:17;;;;;;;6.07;2.25;;;6.70;99.90;;;;;;5082787;28;20056;-74
2022/11/22 09:54:52;;;;;;;8.20;2.53;;;6.70;99.90;;;;;;5068795;28;20039;-73
2022/11/22 09:57:23;;;;;;;7.20;3.50;;;6.80;99.90;;;;;;5071831;28;20404;-73
2022/11/22 10:00:00;;;;;;;5.45;2.33;;;6.80;99.90;;;;;;5071528;28;20037;-73
2022/11/22 10:02:34;;;;;;;11.23;2.50;;;6.80;99.90;;;;;;5070487;28;20066;-75
2022/11/22 10:05:02;;;;;;;9.82;3.08;;;6.80;99.90;;;;;;5069192;28;20050;-75
2022/11/22 10:07:39;;;;;;;8.02;2.70;;;6.80;99.90;;;;;;5074730;28;20060;-75
2022/11/22 10:10:12;;;;;;;8.95;2.45;;;6.80;99.90;;;;;;5068972;28;20032;-75
2022/11/22 10:13:00;;;;;;;6.78;2.40;;;6.80;99.90;;;;;;5072951;28;20047;-75
2022/11/22 10:15:51;;;;;;;5.97;2.63;;;6.80;99.90;;;;;;5070356;28;20492;-73
2022/11/22 10:18:30;;;;;;;11.85;3.22;;;6.80;99.90;;;;;;5069716;28;20027;-75
2022/11/22 10:20:56;;;;;;;6.10;2.10;;;6.80;99.90;;;;;;5071540;28;20423;-75
2022/11/22 10:23:23;;;;;;;4.65;2.35;;;6.90;99.90;;;;;;5072795;28;20020;-75
2022/11/22 10:25:59;;;;;;;6.22;2.45;;;6.90;99.90;;;;;;5070133;28;20552;-73
2022/11/22 10:28:34;;;;;;;10.75;2.75;;;6.90;99.90;;;;;;5069699;28;20120;-74
2022/11/22 10:31:15;;;;;;;5.38;2.72;;;7.00;99.90;;;;;;5070499;28;20046;-73
2022/11/22 10:34:10;;;;;;;9.38;2.88;;;6.90;99.90;;;;;;5070607;28;20056;-74
2022/11/22 10:37:05;;;;;;;8.00;2.28;;;7.00;99.90;;;;;;4979724;28;20525;-75
2022/11/22 10:39:51;;;;;;;8.48;1.83;;;6.90;99.90;;;;;;5067200;28;20671;-76
2022/11/22 10:42:25;;;;;;;6.85;2.75;;;7.00;99.90;;;;;;5067762;28;20021;-75
2022/11/22 10:44:59;;;;;;;6.68;2.53;;;7.00;99.90;;;;;;5070183;28;20031;-75
2022/11/22 10:47:55;;;;;;;4.60;2.30;;;7.10;99.90;;;;;;5066605;28;20107;-74
2022/11/22 10:50:53;;;;;;;11.98;2.67;;;7.20;99.90;;;;;;5066129;28;20024;-75
2022/11/22 10:53:36;;;;;;;5.82;2.28;;;7.30;99.90;;;;;;5066085;28;20139;-74
2022/11/22 10:56:26;;;;;;;5.35;2.30;;;7.40;99.90;;;;;;5067846;28;20070;-75
2022/11/22 10:59:15;;;;;;;9.18;2.38;;;7.50;99.90;;;;;;5066570;28;20491;-74
2022/11/22 11:02:13;;;;;;;8.88;2.88;;;7.50;99.90;;;;;;5024171;28;20032;-77
2022/11/22 11:04:41;;;;;;;7.22;2.00;;;7.60;99.90;;;;;;5068214;28;20024;-74
2022/11/22 11:07:16;;;;;;;9.50;2.60;;;7.70;99.90;;;;;;5068829;28;20027;-75
2022/11/22 11:09:50;;;;;;;7.70;2.45;;;7.70;99.90;;;;;;5070277;28;20040;-74
2022/11/22 11:12:24;;;;;;;7.20;2.75;;;7.70;99.90;;;;;;5079405;28;20056;-74
2022/11/22 11:15:03;;;;;;;11.43;2.75;;;7.70;99.90;;;;;;5060109;28;20036;-75
2022/11/22 11:17:36;;;;;;;8.73;2.35;;;7.70;99.90;;;;;;5070722;28;20104;-75
2022/11/22 11:20:08;;;;;;;6.20;2.30;;;7.70;99.90;;;;;;5069474;28;20020;-75
2022/11/22 11:22:34;;;;;;;6.95;2.42;;;7.60;99.90;;;;;;5068911;28;20124;-75
2022/11/22 11:25:32;;;;;;;10.20;2.45;;;7.70;99.90;;;;;;5072250;28;20143;-75
2022/11/22 11:28:02;;;;;;;4.63;2.47;;;7.70;99.90;;;;;;5070231;28;20075;-75
2022/11/22 11:30:42;;;;;;;4.22;2.13;;;7.70;99.90;;;;;;5071550;28;20587;-75
2022/11/22 11:33:31;;;;;;;6.90;2.28;;;7.70;99.90;;;;;;5070896;28;20025;-74
2022/11/22 11:36:18;;;;;;;7.18;2.03;;;7.70;99.90;;;;;;5070987;28;20045;-74
2022/11/22 11:38:43;;;;;;;5.38;2.00;;;7.70;99.90;;;;;;5066238;28;20431;-75
2022/11/22 11:41:24;;;;;;;5.78;2.83;;;7.70;99.90;;;;;;5069744;28;20089;-75
2022/11/22 11:43:51;;;;;;;;;;;7.70;99.90;;;;;;5068203;28;20021;-76
2022/11/22 11:46:21;;;;;;;4.97;1.92;;;7.70;99.90;;;;;;5070236;28;19905;-75
2022/11/22 11:48:48;;;;;;;7.67;2.13;;;7.70;99.90;;;;;;5070215;28;20032;-75
2022/11/22 11:51:17;;;;;;;3.15;1.85;;;7.70;99.90;;;;;;5069125;28;20043;-76
2022/11/22 11:54:04;;;;;;;7.28;2.25;;;7.80;99.90;;;;;;5071968;28;20383;-76
2022/11/22 11:56:44;;;;;;;5.10;1.77;;;7.80;99.90;;;;;;5058887;28;20033;-76
2022/11/22 11:59:17;;;;;;;6.77;2.00;;;7.80;99.90;;;;;;5054357;28;20021;-75
2022/11/22 12:02:02;;;;;;;8.30;2.10;;;7.90;99.90;;;;;;5059995;28;20028;-76
2022/11/22 12:04:33;;;;;;;4.30;2.08;;;8.00;99.90;;;;;;5042689;28;20044;-77
2022/11/22 12:07:18;;;;;;;2.55;1.77;;;8.10;99.90;;;;;;5061690;28;20020;-76
2022/11/22 12:09:46;;;;;;;6.93;2.20;;;8.20;99.90;;;;;;5066121;28;20439;-75
2022/11/22 12:12:36;;;;;;;6.00;1.92;;;8.30;99.90;;;;;;5065102;28;20016;-75
2022/11/22 12:15:25;;;;;;;3.30;1.60;;;8.40;99.90;;;;;;5061913;28;20031;-76
2022/11/22 12:18:01;;;;;;;7.13;2.03;;;8.50;99.90;;;;;;5062807;28;20392;-76
2022/11/22 12:20:44;;;;;;;8.68;2.60;;;8.50;99.90;;;;;;5060134;28;20025;-76
2022/11/22 12:23:47;;;;;;;2.17;1.80;;;8.50;99.90;;;;;;5055102;28;20024;-75
2022/11/22 12:26:13;;;;;;;4.50;1.63;;;8.40;99.90;;;;;;5056310;28;20017;-76
2022/11/22 12:28:39;;;;;;;2.80;2.00;;;8.40;99.90;;;;;;5057077;28;20041;-76
2022/11/22 12:31:38;;;;;;;3.33;1.27;;;8.30;99.90;;;;;;5059414;28;20028;-75
2022/11/22 12:34:25;;;;;;;3.30;1.48;;;8.40;99.90;;;;;;5082765;28;20028;-75
2022/11/22 12:36:51;;;;;;;3.60;1.48;;;8.40;99.90;;;;;;5088084;28;20036;-75
2022/11/22 12:39:25;;;;;;;4.15;1.50;;;8.30;99.90;;;;;;5067950;28;20508;-75
2022/11/22 12:41:58;;;;;;;6.47;1.92;;;9.30;99.90;;;;;;5074800;28;20031;-76
2022/11/22 12:44:25;;;;;;;3.30;1.73;;;8.30;99.90;;;;;;5077319;28;20029;-76
2022/11/22 12:47:00;;;;;;;2.47;1.52;;;9.20;99.90;;;;;;5074415;28;20028;-75
2022/11/22 12:49:29;;;;;;;4.18;1.60;;;8.20;99.90;;;;;;5075335;28;20032;-76
2022/11/22 12:52:33;;;;;;;4.93;1.60;;;8.20;99.90;;;;;;5061738;28;20036;-76
2022/11/22 12:55:14;;;;;;;3.80;1.40;;;8.20;99.90;;;;;;5056122;28;20025;-75
2022/11/22 12:57:52;;;;;;;5.10;1.63;;;8.20;99.90;;;;;;5070459;28;20024;-76
2022/11/22 13:00:23;;;;;;;7.28;1.80;;;8.20;99.90;;;;;;5068399;28;20025;-75
2022/11/22 13:02:48;;;;;;;3.15;1.73;;;8.30;99.90;;;;;;5057876;28;20116;-75
2022/11/22 13:05:24;;;;;;;2.85;1.42;;;8.30;99.90;;;;;;5058608;28;20115;-74
2022/11/22 13:08:12;;;;;;;4.30;1.60;;;8.30;99.90;;;;;;5073912;28;20484;-77
2022/11/22 13:10:43;;;;;;;1.88;1.20;;;8.30;99.90;;;;;;5076365;28;20392;-76
2022/11/22 13:13:26;;;;;;;2.65;1.33;;;8.30;99.90;;;;;;5074215;28;20024;-77
2022/11/22 13:15:54;;;;;;;5.25;1.30;;;8.30;99.90;;;;;;5075255;28;20028;-76
2022/11/22 13:18:25;;;;;;;4.85;1.60;;;8.30;99.90;;;;;;5075481;28;20028;-77